<?xml version="1.0" encoding="UTF-8" standalone="no" ?>
<gpx xmlns="http://www.topografix.com/GPX/1/1" xmlns:xsi="http://www.w3.org/2001/XMLSchema-instance" xsi:schemaLocation="http://www.topografix.com/GPX/1/1 http://www.topografix.com/GPX/1/1/gpx.xsd" version="1.1" creator="VisuGPX - https://www.visugpx.com">
  <metadata>
    <name>AVF sortie à Claviers Chapelle Sainte Anne</name>
    <desc><![CDATA[Claviers - Chapelle Sainte Anne]]></desc>
  </metadata>
  <wpt lat="43.60231" lon="6.56621">
    <ele>410</ele>
    <name><![CDATA[0000091]]></name>
    <desc><![CDATA[]]></desc>
    <type><![CDATA[Point de départ]]></type>
  </wpt>
  <wpt lat="43.60227" lon="6.56607">
    <ele>409</ele>
    <name><![CDATA[0000092]]></name>
    <desc><![CDATA[<br /><h3>Nom: Segment 1</h3><br /><p>Temps de départ: 02/19/2013 14:06</p><p>Temps d'arrivée: 02/19/2013 16:42</p><p>Distance: 6,6 km (02:35)</p><p>Temps déplacement: 01:55</p><p>Vitesse moyenne: 2,5 km/h</p><p>Vitesse moyenne: 3,4 km/h</p><p>Vitess Max.: 7,2 km/h</p><p>Altitude minimale: 406 m</p><p>Altitude maximale: 665 m</p><p>Vitesse d'élévation: 189 m/h</p><p>Vitesse de descente: -240 m/h</p><p>Gain Altitude: 231 m</p><p>Perte Altitude: -199 m</p><p>Temps d'élévation: 01:13</p><p>Temps de descente: 00:49</p>]]></desc>
    <type><![CDATA[Point d'arrivée]]></type>
  </wpt>
  <trk>
    <name><![CDATA[claviers ]]></name>
    <desc><![CDATA[<h1>OruxMaps</h1><br /><hr align="center" width="480" style="height: 2px; width: 517px"/><h2>Nom: claviers </h2><br /><p>Temps de départ: 02/19/2013 14:06</p><p>Temps d'arrivée: 02/19/2013 16:42</p><p>Distance: 6,6 km (02:35)</p><p>Temps déplacement: 01:55</p><p>Vitesse moyenne: 2,5 km/h</p><p>Vitesse moyenne: 3,4 km/h</p><p>Vitess Max.: 7,2 km/h</p><p>Altitude minimale: 406 m</p><p>Altitude maximale: 665 m</p><p>Vitesse d'élévation: 189 m/h</p><p>Vitesse de descente: -240 m/h</p><p>Gain Altitude: 231 m</p><p>Perte Altitude: -199 m</p><p>Temps d'élévation: 01:13</p><p>Temps de descente: 00:49</p><hr align="center" width="480" style="height: 2px; width: 517px"/>]]></desc>
    <trkseg>
      <trkpt lat="43.60231" lon="6.56621">
        <ele>410.00513</ele>
        <time>2013-02-19T13:06:43Z</time>
      </trkpt>
      <trkpt lat="43.60224" lon="6.56613">
        <ele>406.71106</ele>
        <time>2013-02-19T13:07:17Z</time>
      </trkpt>
      <trkpt lat="43.60214" lon="6.56614">
        <ele>407.5814</ele>
        <time>2013-02-19T13:07:35Z</time>
      </trkpt>
      <trkpt lat="43.60214" lon="6.56626">
        <ele>408.87616</ele>
        <time>2013-02-19T13:08:01Z</time>
      </trkpt>
      <trkpt lat="43.60209" lon="6.56638">
        <ele>407.8919</ele>
        <time>2013-02-19T13:08:10Z</time>
      </trkpt>
      <trkpt lat="43.60207" lon="6.5665">
        <ele>408.03152</ele>
        <time>2013-02-19T13:08:29Z</time>
      </trkpt>
      <trkpt lat="43.60204" lon="6.56663">
        <ele>408.27087</ele>
        <time>2013-02-19T13:08:33Z</time>
      </trkpt>
      <trkpt lat="43.602" lon="6.56675">
        <ele>408.82056</ele>
        <time>2013-02-19T13:08:38Z</time>
      </trkpt>
      <trkpt lat="43.60194" lon="6.56684">
        <ele>409.51306</ele>
        <time>2013-02-19T13:08:43Z</time>
      </trkpt>
      <trkpt lat="43.60188" lon="6.56695">
        <ele>410.62817</ele>
        <time>2013-02-19T13:08:51Z</time>
      </trkpt>
      <trkpt lat="43.60186" lon="6.56707">
        <ele>414.6578</ele>
        <time>2013-02-19T13:09:07Z</time>
      </trkpt>
      <trkpt lat="43.6019" lon="6.56719">
        <ele>416.6153</ele>
        <time>2013-02-19T13:09:17Z</time>
      </trkpt>
      <trkpt lat="43.60191" lon="6.56733">
        <ele>418.00208</ele>
        <time>2013-02-19T13:09:26Z</time>
      </trkpt>
      <trkpt lat="43.60197" lon="6.56742">
        <ele>419.65015</ele>
        <time>2013-02-19T13:09:45Z</time>
      </trkpt>
      <trkpt lat="43.60207" lon="6.56744">
        <ele>420.43292</ele>
        <time>2013-02-19T13:09:53Z</time>
      </trkpt>
      <trkpt lat="43.6021" lon="6.56756">
        <ele>421.46677</ele>
        <time>2013-02-19T13:10:02Z</time>
      </trkpt>
      <trkpt lat="43.60204" lon="6.56767">
        <ele>422.50153</ele>
        <time>2013-02-19T13:10:09Z</time>
      </trkpt>
      <trkpt lat="43.60199" lon="6.56778">
        <ele>423.45612</ele>
        <time>2013-02-19T13:10:16Z</time>
      </trkpt>
      <trkpt lat="43.60193" lon="6.56789">
        <ele>424.84772</ele>
        <time>2013-02-19T13:10:27Z</time>
      </trkpt>
      <trkpt lat="43.60191" lon="6.56801">
        <ele>425.46713</ele>
        <time>2013-02-19T13:10:35Z</time>
      </trkpt>
      <trkpt lat="43.60191" lon="6.56815">
        <ele>425.45157</ele>
        <time>2013-02-19T13:10:45Z</time>
      </trkpt>
      <trkpt lat="43.60191" lon="6.5683">
        <ele>425.8537</ele>
        <time>2013-02-19T13:11:20Z</time>
      </trkpt>
      <trkpt lat="43.60194" lon="6.56842">
        <ele>426.44638</ele>
        <time>2013-02-19T13:11:27Z</time>
      </trkpt>
      <trkpt lat="43.60199" lon="6.56854">
        <ele>426.2265</ele>
        <time>2013-02-19T13:11:36Z</time>
      </trkpt>
      <trkpt lat="43.60188" lon="6.56853">
        <ele>425.2868</ele>
        <time>2013-02-19T13:11:47Z</time>
      </trkpt>
      <trkpt lat="43.60179" lon="6.56852">
        <ele>425.24796</ele>
        <time>2013-02-19T13:11:55Z</time>
      </trkpt>
      <trkpt lat="43.60183" lon="6.56873">
        <ele>424.71207</ele>
        <time>2013-02-19T13:12:01Z</time>
      </trkpt>
      <trkpt lat="43.60188" lon="6.56883">
        <ele>424.0807</ele>
        <time>2013-02-19T13:12:03Z</time>
      </trkpt>
      <trkpt lat="43.60192" lon="6.569">
        <ele>423.69342</ele>
        <time>2013-02-19T13:12:07Z</time>
      </trkpt>
      <trkpt lat="43.60195" lon="6.56912">
        <ele>424.2197</ele>
        <time>2013-02-19T13:12:14Z</time>
      </trkpt>
      <trkpt lat="43.60196" lon="6.56924">
        <ele>425.1673</ele>
        <time>2013-02-19T13:12:21Z</time>
      </trkpt>
      <trkpt lat="43.60205" lon="6.56921">
        <ele>427.98837</ele>
        <time>2013-02-19T13:13:02Z</time>
      </trkpt>
      <trkpt lat="43.60214" lon="6.56915">
        <ele>428.49442</ele>
        <time>2013-02-19T13:13:08Z</time>
      </trkpt>
      <trkpt lat="43.60223" lon="6.56911">
        <ele>429.04718</ele>
        <time>2013-02-19T13:13:15Z</time>
      </trkpt>
      <trkpt lat="43.60232" lon="6.56908">
        <ele>429.85385</ele>
        <time>2013-02-19T13:13:22Z</time>
      </trkpt>
      <trkpt lat="43.60241" lon="6.56903">
        <ele>430.618</ele>
        <time>2013-02-19T13:13:30Z</time>
      </trkpt>
      <trkpt lat="43.6025" lon="6.56895">
        <ele>430.86926</ele>
        <time>2013-02-19T13:13:38Z</time>
      </trkpt>
      <trkpt lat="43.60254" lon="6.56883">
        <ele>430.92874</ele>
        <time>2013-02-19T13:13:47Z</time>
      </trkpt>
      <trkpt lat="43.60256" lon="6.56871">
        <ele>430.56256</ele>
        <time>2013-02-19T13:13:56Z</time>
      </trkpt>
      <trkpt lat="43.60262" lon="6.56861">
        <ele>430.13947</ele>
        <time>2013-02-19T13:14:03Z</time>
      </trkpt>
      <trkpt lat="43.60267" lon="6.5685">
        <ele>429.74167</ele>
        <time>2013-02-19T13:14:10Z</time>
      </trkpt>
      <trkpt lat="43.60273" lon="6.5684">
        <ele>429.79312</ele>
        <time>2013-02-19T13:14:17Z</time>
      </trkpt>
      <trkpt lat="43.6028" lon="6.5683">
        <ele>429.98495</ele>
        <time>2013-02-19T13:14:26Z</time>
      </trkpt>
      <trkpt lat="43.60287" lon="6.56822">
        <ele>430.07355</ele>
        <time>2013-02-19T13:14:34Z</time>
      </trkpt>
      <trkpt lat="43.60291" lon="6.5681">
        <ele>429.96423</ele>
        <time>2013-02-19T13:14:41Z</time>
      </trkpt>
      <trkpt lat="43.60297" lon="6.568">
        <ele>430.09622</ele>
        <time>2013-02-19T13:14:48Z</time>
      </trkpt>
      <trkpt lat="43.60304" lon="6.56789">
        <ele>431.3054</ele>
        <time>2013-02-19T13:14:56Z</time>
      </trkpt>
      <trkpt lat="43.60312" lon="6.56781">
        <ele>432.4421</ele>
        <time>2013-02-19T13:15:03Z</time>
      </trkpt>
      <trkpt lat="43.60317" lon="6.56769">
        <ele>433.69116</ele>
        <time>2013-02-19T13:15:13Z</time>
      </trkpt>
      <trkpt lat="43.60322" lon="6.56758">
        <ele>434.77142</ele>
        <time>2013-02-19T13:15:22Z</time>
      </trkpt>
      <trkpt lat="43.60326" lon="6.56746">
        <ele>435.39444</ele>
        <time>2013-02-19T13:15:34Z</time>
      </trkpt>
      <trkpt lat="43.60332" lon="6.56736">
        <ele>435.91965</ele>
        <time>2013-02-19T13:15:46Z</time>
      </trkpt>
      <trkpt lat="43.60339" lon="6.56726">
        <ele>436.3238</ele>
        <time>2013-02-19T13:15:56Z</time>
      </trkpt>
      <trkpt lat="43.60346" lon="6.56719">
        <ele>436.5015</ele>
        <time>2013-02-19T13:16:03Z</time>
      </trkpt>
      <trkpt lat="43.60354" lon="6.56711">
        <ele>436.6172</ele>
        <time>2013-02-19T13:16:12Z</time>
      </trkpt>
      <trkpt lat="43.60363" lon="6.56715">
        <ele>437.73294</ele>
        <time>2013-02-19T13:16:23Z</time>
      </trkpt>
      <trkpt lat="43.60372" lon="6.56722">
        <ele>438.1829</ele>
        <time>2013-02-19T13:16:32Z</time>
      </trkpt>
      <trkpt lat="43.60381" lon="6.56727">
        <ele>438.02457</ele>
        <time>2013-02-19T13:16:42Z</time>
      </trkpt>
      <trkpt lat="43.60395" lon="6.56729">
        <ele>437.91974</ele>
        <time>2013-02-19T13:17:11Z</time>
      </trkpt>
      <trkpt lat="43.60402" lon="6.56719">
        <ele>438.4924</ele>
        <time>2013-02-19T13:17:32Z</time>
      </trkpt>
      <trkpt lat="43.60412" lon="6.56715">
        <ele>438.92877</ele>
        <time>2013-02-19T13:17:44Z</time>
      </trkpt>
      <trkpt lat="43.60421" lon="6.56711">
        <ele>439.70853</ele>
        <time>2013-02-19T13:17:53Z</time>
      </trkpt>
      <trkpt lat="43.60428" lon="6.56703">
        <ele>440.42755</ele>
        <time>2013-02-19T13:18:02Z</time>
      </trkpt>
      <trkpt lat="43.60435" lon="6.56695">
        <ele>440.81216</ele>
        <time>2013-02-19T13:18:11Z</time>
      </trkpt>
      <trkpt lat="43.60449" lon="6.56696">
        <ele>442.62976</ele>
        <time>2013-02-19T13:19:09Z</time>
      </trkpt>
      <trkpt lat="43.60452" lon="6.56683">
        <ele>442.8312</ele>
        <time>2013-02-19T13:19:15Z</time>
      </trkpt>
      <trkpt lat="43.6046" lon="6.56677">
        <ele>442.2399</ele>
        <time>2013-02-19T13:19:23Z</time>
      </trkpt>
      <trkpt lat="43.60469" lon="6.5667">
        <ele>442.75394</ele>
        <time>2013-02-19T13:19:37Z</time>
      </trkpt>
      <trkpt lat="43.60476" lon="6.56663">
        <ele>443.32132</ele>
        <time>2013-02-19T13:19:44Z</time>
      </trkpt>
      <trkpt lat="43.60482" lon="6.56654">
        <ele>444.18304</ele>
        <time>2013-02-19T13:19:55Z</time>
      </trkpt>
      <trkpt lat="43.60488" lon="6.56644">
        <ele>444.74213</ele>
        <time>2013-02-19T13:20:26Z</time>
      </trkpt>
      <trkpt lat="43.60492" lon="6.56631">
        <ele>444.8489</ele>
        <time>2013-02-19T13:20:33Z</time>
      </trkpt>
      <trkpt lat="43.60502" lon="6.56628">
        <ele>445.6476</ele>
        <time>2013-02-19T13:20:42Z</time>
      </trkpt>
      <trkpt lat="43.6051" lon="6.56634">
        <ele>447.25476</ele>
        <time>2013-02-19T13:20:54Z</time>
      </trkpt>
      <trkpt lat="43.60517" lon="6.56643">
        <ele>448.47726</ele>
        <time>2013-02-19T13:21:03Z</time>
      </trkpt>
      <trkpt lat="43.60519" lon="6.56655">
        <ele>450.4831</ele>
        <time>2013-02-19T13:21:15Z</time>
      </trkpt>
      <trkpt lat="43.60518" lon="6.56668">
        <ele>452.4641</ele>
        <time>2013-02-19T13:21:23Z</time>
      </trkpt>
      <trkpt lat="43.60515" lon="6.5668">
        <ele>454.26785</ele>
        <time>2013-02-19T13:21:33Z</time>
      </trkpt>
      <trkpt lat="43.60511" lon="6.56692">
        <ele>455.7399</ele>
        <time>2013-02-19T13:21:41Z</time>
      </trkpt>
      <trkpt lat="43.60506" lon="6.56703">
        <ele>456.92188</ele>
        <time>2013-02-19T13:21:48Z</time>
      </trkpt>
      <trkpt lat="43.60499" lon="6.56712">
        <ele>457.81555</ele>
        <time>2013-02-19T13:21:56Z</time>
      </trkpt>
      <trkpt lat="43.60493" lon="6.56722">
        <ele>458.50314</ele>
        <time>2013-02-19T13:22:04Z</time>
      </trkpt>
      <trkpt lat="43.60488" lon="6.56732">
        <ele>459.72702</ele>
        <time>2013-02-19T13:22:13Z</time>
      </trkpt>
      <trkpt lat="43.6048" lon="6.5674">
        <ele>460.93137</ele>
        <time>2013-02-19T13:22:26Z</time>
      </trkpt>
      <trkpt lat="43.60477" lon="6.56753">
        <ele>461.77032</ele>
        <time>2013-02-19T13:23:02Z</time>
      </trkpt>
      <trkpt lat="43.60473" lon="6.56765">
        <ele>461.91788</ele>
        <time>2013-02-19T13:23:13Z</time>
      </trkpt>
      <trkpt lat="43.60464" lon="6.5677">
        <ele>462.04578</ele>
        <time>2013-02-19T13:23:21Z</time>
      </trkpt>
      <trkpt lat="43.60455" lon="6.56775">
        <ele>462.16568</ele>
        <time>2013-02-19T13:23:26Z</time>
      </trkpt>
      <trkpt lat="43.60447" lon="6.56782">
        <ele>462.23248</ele>
        <time>2013-02-19T13:23:33Z</time>
      </trkpt>
      <trkpt lat="43.6044" lon="6.56791">
        <ele>462.4699</ele>
        <time>2013-02-19T13:23:41Z</time>
      </trkpt>
      <trkpt lat="43.60434" lon="6.568">
        <ele>462.79105</ele>
        <time>2013-02-19T13:23:58Z</time>
      </trkpt>
      <trkpt lat="43.60426" lon="6.56807">
        <ele>462.0927</ele>
        <time>2013-02-19T13:24:06Z</time>
      </trkpt>
      <trkpt lat="43.60418" lon="6.56816">
        <ele>461.71286</ele>
        <time>2013-02-19T13:24:16Z</time>
      </trkpt>
      <trkpt lat="43.60412" lon="6.56826">
        <ele>461.8573</ele>
        <time>2013-02-19T13:24:26Z</time>
      </trkpt>
      <trkpt lat="43.60405" lon="6.56836">
        <ele>462.3729</ele>
        <time>2013-02-19T13:24:35Z</time>
      </trkpt>
      <trkpt lat="43.60397" lon="6.56844">
        <ele>463.19168</ele>
        <time>2013-02-19T13:24:44Z</time>
      </trkpt>
      <trkpt lat="43.60389" lon="6.56851">
        <ele>463.2957</ele>
        <time>2013-02-19T13:24:52Z</time>
      </trkpt>
      <trkpt lat="43.60382" lon="6.56861">
        <ele>463.66925</ele>
        <time>2013-02-19T13:25:02Z</time>
      </trkpt>
      <trkpt lat="43.60378" lon="6.56873">
        <ele>464.1832</ele>
        <time>2013-02-19T13:25:13Z</time>
      </trkpt>
      <trkpt lat="43.60375" lon="6.56885">
        <ele>464.7637</ele>
        <time>2013-02-19T13:25:24Z</time>
      </trkpt>
      <trkpt lat="43.60371" lon="6.56895">
        <ele>465.49258</ele>
        <time>2013-02-19T13:25:34Z</time>
      </trkpt>
      <trkpt lat="43.60364" lon="6.56904">
        <ele>465.59708</ele>
        <time>2013-02-19T13:25:45Z</time>
      </trkpt>
      <trkpt lat="43.60361" lon="6.56916">
        <ele>465.16742</ele>
        <time>2013-02-19T13:25:54Z</time>
      </trkpt>
      <trkpt lat="43.60361" lon="6.5693">
        <ele>464.65817</ele>
        <time>2013-02-19T13:26:05Z</time>
      </trkpt>
      <trkpt lat="43.60364" lon="6.56942">
        <ele>464.06454</ele>
        <time>2013-02-19T13:26:26Z</time>
      </trkpt>
      <trkpt lat="43.60368" lon="6.56953">
        <ele>464.72043</ele>
        <time>2013-02-19T13:26:48Z</time>
      </trkpt>
      <trkpt lat="43.6037" lon="6.56966">
        <ele>465.87137</ele>
        <time>2013-02-19T13:26:58Z</time>
      </trkpt>
      <trkpt lat="43.60371" lon="6.56978">
        <ele>468.37433</ele>
        <time>2013-02-19T13:27:11Z</time>
      </trkpt>
      <trkpt lat="43.60372" lon="6.56991">
        <ele>470.43613</ele>
        <time>2013-02-19T13:27:33Z</time>
      </trkpt>
      <trkpt lat="43.60376" lon="6.57002">
        <ele>470.98102</ele>
        <time>2013-02-19T13:27:45Z</time>
      </trkpt>
      <trkpt lat="43.60375" lon="6.57014">
        <ele>470.76822</ele>
        <time>2013-02-19T13:27:59Z</time>
      </trkpt>
      <trkpt lat="43.60375" lon="6.57027">
        <ele>471.47815</ele>
        <time>2013-02-19T13:28:35Z</time>
      </trkpt>
      <trkpt lat="43.60378" lon="6.5704">
        <ele>472.7729</ele>
        <time>2013-02-19T13:29:26Z</time>
      </trkpt>
      <trkpt lat="43.60386" lon="6.57033">
        <ele>471.25183</ele>
        <time>2013-02-19T13:29:44Z</time>
      </trkpt>
      <trkpt lat="43.60392" lon="6.57023">
        <ele>470.86853</ele>
        <time>2013-02-19T13:29:56Z</time>
      </trkpt>
      <trkpt lat="43.60394" lon="6.5701">
        <ele>470.14746</ele>
        <time>2013-02-19T13:30:05Z</time>
      </trkpt>
      <trkpt lat="43.60398" lon="6.56997">
        <ele>468.526</ele>
        <time>2013-02-19T13:30:20Z</time>
      </trkpt>
      <trkpt lat="43.60406" lon="6.56987">
        <ele>467.17178</ele>
        <time>2013-02-19T13:30:32Z</time>
      </trkpt>
      <trkpt lat="43.60415" lon="6.56979">
        <ele>466.17654</ele>
        <time>2013-02-19T13:30:44Z</time>
      </trkpt>
      <trkpt lat="43.60426" lon="6.56975">
        <ele>464.5839</ele>
        <time>2013-02-19T13:30:56Z</time>
      </trkpt>
      <trkpt lat="43.60436" lon="6.56969">
        <ele>462.6012</ele>
        <time>2013-02-19T13:31:08Z</time>
      </trkpt>
      <trkpt lat="43.60445" lon="6.56964">
        <ele>462.1686</ele>
        <time>2013-02-19T13:31:20Z</time>
      </trkpt>
      <trkpt lat="43.60451" lon="6.56949">
        <ele>463.88864</ele>
        <time>2013-02-19T13:31:29Z</time>
      </trkpt>
      <trkpt lat="43.60456" lon="6.56938">
        <ele>466.607</ele>
        <time>2013-02-19T13:31:38Z</time>
      </trkpt>
      <trkpt lat="43.60465" lon="6.56927">
        <ele>470.59656</ele>
        <time>2013-02-19T13:31:50Z</time>
      </trkpt>
      <trkpt lat="43.60475" lon="6.56921">
        <ele>476.04395</ele>
        <time>2013-02-19T13:32:05Z</time>
      </trkpt>
      <trkpt lat="43.60484" lon="6.56916">
        <ele>479.2651</ele>
        <time>2013-02-19T13:32:14Z</time>
      </trkpt>
      <trkpt lat="43.60494" lon="6.56911">
        <ele>483.32913</ele>
        <time>2013-02-19T13:32:26Z</time>
      </trkpt>
      <trkpt lat="43.60501" lon="6.56902">
        <ele>486.97995</ele>
        <time>2013-02-19T13:32:38Z</time>
      </trkpt>
      <trkpt lat="43.60509" lon="6.56895">
        <ele>490.74118</ele>
        <time>2013-02-19T13:32:50Z</time>
      </trkpt>
      <trkpt lat="43.60505" lon="6.56909">
        <ele>496.81314</ele>
        <time>2013-02-19T13:33:35Z</time>
      </trkpt>
      <trkpt lat="43.60497" lon="6.56918">
        <ele>497.33545</ele>
        <time>2013-02-19T13:33:45Z</time>
      </trkpt>
      <trkpt lat="43.6049" lon="6.56926">
        <ele>497.77264</ele>
        <time>2013-02-19T13:33:57Z</time>
      </trkpt>
      <trkpt lat="43.60481" lon="6.56934">
        <ele>499.49146</ele>
        <time>2013-02-19T13:34:18Z</time>
      </trkpt>
      <trkpt lat="43.60469" lon="6.56941">
        <ele>500.51813</ele>
        <time>2013-02-19T13:34:33Z</time>
      </trkpt>
      <trkpt lat="43.6046" lon="6.56949">
        <ele>501.78574</ele>
        <time>2013-02-19T13:34:42Z</time>
      </trkpt>
      <trkpt lat="43.60457" lon="6.56963">
        <ele>502.3694</ele>
        <time>2013-02-19T13:34:51Z</time>
      </trkpt>
      <trkpt lat="43.60456" lon="6.56975">
        <ele>503.239</ele>
        <time>2013-02-19T13:35:33Z</time>
      </trkpt>
      <trkpt lat="43.60467" lon="6.56979">
        <ele>503.43646</ele>
        <time>2013-02-19T13:35:51Z</time>
      </trkpt>
      <trkpt lat="43.60479" lon="6.56978">
        <ele>504.06046</ele>
        <time>2013-02-19T13:36:00Z</time>
      </trkpt>
      <trkpt lat="43.60488" lon="6.56978">
        <ele>506.57028</ele>
        <time>2013-02-19T13:36:15Z</time>
      </trkpt>
      <trkpt lat="43.60499" lon="6.5698">
        <ele>507.45505</ele>
        <time>2013-02-19T13:36:27Z</time>
      </trkpt>
      <trkpt lat="43.60508" lon="6.56984">
        <ele>507.98322</ele>
        <time>2013-02-19T13:36:45Z</time>
      </trkpt>
      <trkpt lat="43.6052" lon="6.56984">
        <ele>509.14844</ele>
        <time>2013-02-19T13:37:00Z</time>
      </trkpt>
      <trkpt lat="43.6053" lon="6.56987">
        <ele>510.5781</ele>
        <time>2013-02-19T13:37:18Z</time>
      </trkpt>
      <trkpt lat="43.6054" lon="6.56988">
        <ele>511.89395</ele>
        <time>2013-02-19T13:37:30Z</time>
      </trkpt>
      <trkpt lat="43.60549" lon="6.56982">
        <ele>513.4972</ele>
        <time>2013-02-19T13:37:45Z</time>
      </trkpt>
      <trkpt lat="43.60557" lon="6.56976">
        <ele>515.2863</ele>
        <time>2013-02-19T13:38:03Z</time>
      </trkpt>
      <trkpt lat="43.60565" lon="6.56968">
        <ele>516.42413</ele>
        <time>2013-02-19T13:38:15Z</time>
      </trkpt>
      <trkpt lat="43.60574" lon="6.56962">
        <ele>517.66254</ele>
        <time>2013-02-19T13:38:33Z</time>
      </trkpt>
      <trkpt lat="43.60584" lon="6.56956">
        <ele>519.1401</ele>
        <time>2013-02-19T13:38:54Z</time>
      </trkpt>
      <trkpt lat="43.60592" lon="6.56949">
        <ele>519.642</ele>
        <time>2013-02-19T13:39:15Z</time>
      </trkpt>
      <trkpt lat="43.60602" lon="6.56943">
        <ele>520.2471</ele>
        <time>2013-02-19T13:39:33Z</time>
      </trkpt>
      <trkpt lat="43.60611" lon="6.56936">
        <ele>520.38855</ele>
        <time>2013-02-19T13:39:51Z</time>
      </trkpt>
      <trkpt lat="43.60618" lon="6.56926">
        <ele>521.23517</ele>
        <time>2013-02-19T13:40:12Z</time>
      </trkpt>
      <trkpt lat="43.60627" lon="6.56921">
        <ele>522.77344</ele>
        <time>2013-02-19T13:40:27Z</time>
      </trkpt>
      <trkpt lat="43.60636" lon="6.56916">
        <ele>523.6667</ele>
        <time>2013-02-19T13:40:48Z</time>
      </trkpt>
      <trkpt lat="43.60645" lon="6.56913">
        <ele>524.0135</ele>
        <time>2013-02-19T13:41:03Z</time>
      </trkpt>
      <trkpt lat="43.60657" lon="6.56909">
        <ele>525.36096</ele>
        <time>2013-02-19T13:41:24Z</time>
      </trkpt>
      <trkpt lat="43.60664" lon="6.56901">
        <ele>526.29785</ele>
        <time>2013-02-19T13:41:39Z</time>
      </trkpt>
      <trkpt lat="43.60671" lon="6.56893">
        <ele>527.6764</ele>
        <time>2013-02-19T13:41:54Z</time>
      </trkpt>
      <trkpt lat="43.60677" lon="6.5688">
        <ele>531.7092</ele>
        <time>2013-02-19T13:42:12Z</time>
      </trkpt>
      <trkpt lat="43.60679" lon="6.56866">
        <ele>535.07605</ele>
        <time>2013-02-19T13:42:30Z</time>
      </trkpt>
      <trkpt lat="43.60689" lon="6.56871">
        <ele>538.6953</ele>
        <time>2013-02-19T13:42:48Z</time>
      </trkpt>
      <trkpt lat="43.60697" lon="6.56863">
        <ele>543.37775</ele>
        <time>2013-02-19T13:43:18Z</time>
      </trkpt>
      <trkpt lat="43.60696" lon="6.56848">
        <ele>543.05457</ele>
        <time>2013-02-19T13:44:06Z</time>
      </trkpt>
      <trkpt lat="43.607" lon="6.56836">
        <ele>543.322</ele>
        <time>2013-02-19T13:44:33Z</time>
      </trkpt>
      <trkpt lat="43.60708" lon="6.56833">
        <ele>545.31195</ele>
        <time>2013-02-19T13:44:47Z</time>
      </trkpt>
      <trkpt lat="43.60718" lon="6.56831">
        <ele>548.9721</ele>
        <time>2013-02-19T13:45:11Z</time>
      </trkpt>
      <trkpt lat="43.60726" lon="6.56824">
        <ele>551.86896</ele>
        <time>2013-02-19T13:45:29Z</time>
      </trkpt>
      <trkpt lat="43.60734" lon="6.56816">
        <ele>554.5916</ele>
        <time>2013-02-19T13:45:50Z</time>
      </trkpt>
      <trkpt lat="43.60744" lon="6.56813">
        <ele>555.7829</ele>
        <time>2013-02-19T13:46:11Z</time>
      </trkpt>
      <trkpt lat="43.60753" lon="6.56809">
        <ele>556.3826</ele>
        <time>2013-02-19T13:46:26Z</time>
      </trkpt>
      <trkpt lat="43.60778" lon="6.568">
        <ele>559.1174</ele>
        <time>2013-02-19T13:47:12Z</time>
      </trkpt>
      <trkpt lat="43.60787" lon="6.56795">
        <ele>560.1107</ele>
        <time>2013-02-19T13:47:24Z</time>
      </trkpt>
      <trkpt lat="43.60796" lon="6.5679">
        <ele>562.2913</ele>
        <time>2013-02-19T13:47:39Z</time>
      </trkpt>
      <trkpt lat="43.60805" lon="6.56795">
        <ele>565.04004</ele>
        <time>2013-02-19T13:47:57Z</time>
      </trkpt>
      <trkpt lat="43.60815" lon="6.56793">
        <ele>566.9754</ele>
        <time>2013-02-19T13:48:15Z</time>
      </trkpt>
      <trkpt lat="43.60824" lon="6.56789">
        <ele>568.26996</ele>
        <time>2013-02-19T13:48:33Z</time>
      </trkpt>
      <trkpt lat="43.60834" lon="6.56788">
        <ele>570.12726</ele>
        <time>2013-02-19T13:49:00Z</time>
      </trkpt>
      <trkpt lat="43.60844" lon="6.56789">
        <ele>571.7904</ele>
        <time>2013-02-19T13:49:18Z</time>
      </trkpt>
      <trkpt lat="43.60852" lon="6.56782">
        <ele>574.18896</ele>
        <time>2013-02-19T13:49:33Z</time>
      </trkpt>
      <trkpt lat="43.60858" lon="6.56793">
        <ele>579.50696</ele>
        <time>2013-02-19T13:50:12Z</time>
      </trkpt>
      <trkpt lat="43.60858" lon="6.56806">
        <ele>581.23773</ele>
        <time>2013-02-19T13:50:27Z</time>
      </trkpt>
      <trkpt lat="43.60858" lon="6.5682">
        <ele>583.96924</ele>
        <time>2013-02-19T13:50:48Z</time>
      </trkpt>
      <trkpt lat="43.60868" lon="6.56821">
        <ele>586.8995</ele>
        <time>2013-02-19T13:51:06Z</time>
      </trkpt>
      <trkpt lat="43.60877" lon="6.56816">
        <ele>589.6221</ele>
        <time>2013-02-19T13:51:24Z</time>
      </trkpt>
      <trkpt lat="43.60886" lon="6.56813">
        <ele>591.10126</ele>
        <time>2013-02-19T13:51:39Z</time>
      </trkpt>
      <trkpt lat="43.60896" lon="6.56808">
        <ele>592.7901</ele>
        <time>2013-02-19T13:51:57Z</time>
      </trkpt>
      <trkpt lat="43.60897" lon="6.56796">
        <ele>598.68726</ele>
        <time>2013-02-19T13:52:54Z</time>
      </trkpt>
      <trkpt lat="43.60905" lon="6.56788">
        <ele>605.2218</ele>
        <time>2013-02-19T13:53:27Z</time>
      </trkpt>
      <trkpt lat="43.60915" lon="6.56788">
        <ele>606.70056</ele>
        <time>2013-02-19T13:53:48Z</time>
      </trkpt>
      <trkpt lat="43.60922" lon="6.56779">
        <ele>606.2869</ele>
        <time>2013-02-19T13:54:03Z</time>
      </trkpt>
      <trkpt lat="43.60922" lon="6.56792">
        <ele>606.7415</ele>
        <time>2013-02-19T13:54:30Z</time>
      </trkpt>
      <trkpt lat="43.60922" lon="6.56805">
        <ele>607.99414</ele>
        <time>2013-02-19T13:54:51Z</time>
      </trkpt>
      <trkpt lat="43.60922" lon="6.56818">
        <ele>608.84174</ele>
        <time>2013-02-19T13:55:15Z</time>
      </trkpt>
      <trkpt lat="43.60922" lon="6.56833">
        <ele>610.14716</ele>
        <time>2013-02-19T13:55:42Z</time>
      </trkpt>
      <trkpt lat="43.60923" lon="6.56846">
        <ele>611.701</ele>
        <time>2013-02-19T13:56:00Z</time>
      </trkpt>
      <trkpt lat="43.60926" lon="6.56861">
        <ele>613.15814</ele>
        <time>2013-02-19T13:56:15Z</time>
      </trkpt>
      <trkpt lat="43.60937" lon="6.56851">
        <ele>619.27264</ele>
        <time>2013-02-19T13:57:18Z</time>
      </trkpt>
      <trkpt lat="43.60946" lon="6.5684">
        <ele>619.23517</ele>
        <time>2013-02-19T13:57:39Z</time>
      </trkpt>
      <trkpt lat="43.60954" lon="6.56835">
        <ele>619.0974</ele>
        <time>2013-02-19T13:57:48Z</time>
      </trkpt>
      <trkpt lat="43.60952" lon="6.5682">
        <ele>618.66754</ele>
        <time>2013-02-19T13:58:00Z</time>
      </trkpt>
      <trkpt lat="43.6096" lon="6.56813">
        <ele>618.34357</ele>
        <time>2013-02-19T13:58:18Z</time>
      </trkpt>
      <trkpt lat="43.60966" lon="6.56803">
        <ele>618.64874</ele>
        <time>2013-02-19T13:58:45Z</time>
      </trkpt>
      <trkpt lat="43.6097" lon="6.56791">
        <ele>618.8978</ele>
        <time>2013-02-19T13:58:54Z</time>
      </trkpt>
      <trkpt lat="43.60966" lon="6.56806">
        <ele>618.8308</ele>
        <time>2013-02-19T14:00:24Z</time>
      </trkpt>
      <trkpt lat="43.60969" lon="6.56817">
        <ele>618.5657</ele>
        <time>2013-02-19T14:00:30Z</time>
      </trkpt>
      <trkpt lat="43.60973" lon="6.5683">
        <ele>617.62897</ele>
        <time>2013-02-19T14:00:36Z</time>
      </trkpt>
      <trkpt lat="43.60981" lon="6.56823">
        <ele>612.2369</ele>
        <time>2013-02-19T14:01:06Z</time>
      </trkpt>
      <trkpt lat="43.60986" lon="6.56809">
        <ele>607.7695</ele>
        <time>2013-02-19T14:01:43Z</time>
      </trkpt>
      <trkpt lat="43.60976" lon="6.56808">
        <ele>610.302</ele>
        <time>2013-02-19T14:02:34Z</time>
      </trkpt>
      <trkpt lat="43.60967" lon="6.56807">
        <ele>613.46875</ele>
        <time>2013-02-19T14:02:49Z</time>
      </trkpt>
      <trkpt lat="43.60965" lon="6.56794">
        <ele>617.2295</ele>
        <time>2013-02-19T14:03:10Z</time>
      </trkpt>
      <trkpt lat="43.60958" lon="6.56783">
        <ele>618.70856</ele>
        <time>2013-02-19T14:03:22Z</time>
      </trkpt>
      <trkpt lat="43.60949" lon="6.56779">
        <ele>620.8125</ele>
        <time>2013-02-19T14:03:58Z</time>
      </trkpt>
      <trkpt lat="43.60941" lon="6.56795">
        <ele>621.8726</ele>
        <time>2013-02-19T14:04:37Z</time>
      </trkpt>
      <trkpt lat="43.60945" lon="6.56812">
        <ele>620.95917</ele>
        <time>2013-02-19T14:05:36Z</time>
      </trkpt>
      <trkpt lat="43.60939" lon="6.56822">
        <ele>620.0529</ele>
        <time>2013-02-19T14:05:42Z</time>
      </trkpt>
      <trkpt lat="43.60942" lon="6.56809">
        <ele>619.47815</ele>
        <time>2013-02-19T14:05:51Z</time>
      </trkpt>
      <trkpt lat="43.60944" lon="6.56822">
        <ele>615.968</ele>
        <time>2013-02-19T14:09:01Z</time>
      </trkpt>
      <trkpt lat="43.60937" lon="6.56813">
        <ele>617.5078</ele>
        <time>2013-02-19T14:09:30Z</time>
      </trkpt>
      <trkpt lat="43.6093" lon="6.56805">
        <ele>617.6094</ele>
        <time>2013-02-19T14:14:24Z</time>
      </trkpt>
      <trkpt lat="43.6094" lon="6.568">
        <ele>620.0938</ele>
        <time>2013-02-19T14:14:36Z</time>
      </trkpt>
      <trkpt lat="43.60948" lon="6.5679">
        <ele>620.3044</ele>
        <time>2013-02-19T14:14:45Z</time>
      </trkpt>
      <trkpt lat="43.60957" lon="6.56789">
        <ele>619.24664</ele>
        <time>2013-02-19T14:15:03Z</time>
      </trkpt>
      <trkpt lat="43.60965" lon="6.56797">
        <ele>618.8195</ele>
        <time>2013-02-19T14:15:15Z</time>
      </trkpt>
      <trkpt lat="43.6097" lon="6.5681">
        <ele>620.4059</ele>
        <time>2013-02-19T14:16:03Z</time>
      </trkpt>
      <trkpt lat="43.60974" lon="6.56822">
        <ele>621.4724</ele>
        <time>2013-02-19T14:16:15Z</time>
      </trkpt>
      <trkpt lat="43.60966" lon="6.5683">
        <ele>621.9474</ele>
        <time>2013-02-19T14:16:25Z</time>
      </trkpt>
      <trkpt lat="43.6096" lon="6.56838">
        <ele>622.2237</ele>
        <time>2013-02-19T14:16:37Z</time>
      </trkpt>
      <trkpt lat="43.60955" lon="6.5685">
        <ele>622.3114</ele>
        <time>2013-02-19T14:16:52Z</time>
      </trkpt>
      <trkpt lat="43.60951" lon="6.56861">
        <ele>622.3366</ele>
        <time>2013-02-19T14:16:58Z</time>
      </trkpt>
      <trkpt lat="43.60945" lon="6.56873">
        <ele>622.47644</ele>
        <time>2013-02-19T14:17:07Z</time>
      </trkpt>
      <trkpt lat="43.60937" lon="6.56883">
        <ele>622.6775</ele>
        <time>2013-02-19T14:17:19Z</time>
      </trkpt>
      <trkpt lat="43.60928" lon="6.56886">
        <ele>622.6644</ele>
        <time>2013-02-19T14:17:31Z</time>
      </trkpt>
      <trkpt lat="43.6092" lon="6.56898">
        <ele>622.1519</ele>
        <time>2013-02-19T14:17:43Z</time>
      </trkpt>
      <trkpt lat="43.60918" lon="6.56913">
        <ele>621.1996</ele>
        <time>2013-02-19T14:17:58Z</time>
      </trkpt>
      <trkpt lat="43.60916" lon="6.56925">
        <ele>620.7198</ele>
        <time>2013-02-19T14:18:13Z</time>
      </trkpt>
      <trkpt lat="43.60909" lon="6.56936">
        <ele>621.00397</ele>
        <time>2013-02-19T14:18:25Z</time>
      </trkpt>
      <trkpt lat="43.60899" lon="6.5694">
        <ele>620.70795</ele>
        <time>2013-02-19T14:18:40Z</time>
      </trkpt>
      <trkpt lat="43.60888" lon="6.56946">
        <ele>620.3858</ele>
        <time>2013-02-19T14:18:52Z</time>
      </trkpt>
      <trkpt lat="43.60878" lon="6.56952">
        <ele>620.3043</ele>
        <time>2013-02-19T14:19:01Z</time>
      </trkpt>
      <trkpt lat="43.6087" lon="6.5696">
        <ele>619.90753</ele>
        <time>2013-02-19T14:19:47Z</time>
      </trkpt>
      <trkpt lat="43.60873" lon="6.56975">
        <ele>618.9678</ele>
        <time>2013-02-19T14:20:02Z</time>
      </trkpt>
      <trkpt lat="43.60876" lon="6.56988">
        <ele>618.7545</ele>
        <time>2013-02-19T14:20:14Z</time>
      </trkpt>
      <trkpt lat="43.60873" lon="6.57002">
        <ele>618.79865</ele>
        <time>2013-02-19T14:20:32Z</time>
      </trkpt>
      <trkpt lat="43.60872" lon="6.57014">
        <ele>618.3737</ele>
        <time>2013-02-19T14:20:41Z</time>
      </trkpt>
      <trkpt lat="43.60872" lon="6.57029">
        <ele>618.21674</ele>
        <time>2013-02-19T14:20:56Z</time>
      </trkpt>
      <trkpt lat="43.60873" lon="6.57043">
        <ele>619.126</ele>
        <time>2013-02-19T14:21:14Z</time>
      </trkpt>
      <trkpt lat="43.60872" lon="6.57058">
        <ele>620.07837</ele>
        <time>2013-02-19T14:21:29Z</time>
      </trkpt>
      <trkpt lat="43.60871" lon="6.57072">
        <ele>621.5214</ele>
        <time>2013-02-19T14:21:50Z</time>
      </trkpt>
      <trkpt lat="43.60871" lon="6.57085">
        <ele>622.46796</ele>
        <time>2013-02-19T14:22:02Z</time>
      </trkpt>
      <trkpt lat="43.60873" lon="6.57099">
        <ele>623.5343</ele>
        <time>2013-02-19T14:22:14Z</time>
      </trkpt>
      <trkpt lat="43.60878" lon="6.57113">
        <ele>625.0496</ele>
        <time>2013-02-19T14:22:29Z</time>
      </trkpt>
      <trkpt lat="43.60884" lon="6.57125">
        <ele>626.3272</ele>
        <time>2013-02-19T14:22:41Z</time>
      </trkpt>
      <trkpt lat="43.60892" lon="6.57135">
        <ele>628.20337</ele>
        <time>2013-02-19T14:22:53Z</time>
      </trkpt>
      <trkpt lat="43.60902" lon="6.57141">
        <ele>630.0969</ele>
        <time>2013-02-19T14:23:05Z</time>
      </trkpt>
      <trkpt lat="43.60914" lon="6.57144">
        <ele>631.5107</ele>
        <time>2013-02-19T14:23:14Z</time>
      </trkpt>
      <trkpt lat="43.60923" lon="6.57149">
        <ele>633.16</ele>
        <time>2013-02-19T14:23:32Z</time>
      </trkpt>
      <trkpt lat="43.60932" lon="6.57159">
        <ele>633.7027</ele>
        <time>2013-02-19T14:23:44Z</time>
      </trkpt>
      <trkpt lat="43.60936" lon="6.5717">
        <ele>634.0048</ele>
        <time>2013-02-19T14:23:53Z</time>
      </trkpt>
      <trkpt lat="43.60938" lon="6.57186">
        <ele>634.33594</ele>
        <time>2013-02-19T14:24:08Z</time>
      </trkpt>
      <trkpt lat="43.60929" lon="6.57226">
        <ele>639.2068</ele>
        <time>2013-02-19T14:25:30Z</time>
      </trkpt>
      <trkpt lat="43.60931" lon="6.57238">
        <ele>639.539</ele>
        <time>2013-02-19T14:25:45Z</time>
      </trkpt>
      <trkpt lat="43.60928" lon="6.57251">
        <ele>639.5521</ele>
        <time>2013-02-19T14:26:00Z</time>
      </trkpt>
      <trkpt lat="43.60927" lon="6.57265">
        <ele>639.86084</ele>
        <time>2013-02-19T14:26:12Z</time>
      </trkpt>
      <trkpt lat="43.60922" lon="6.57281">
        <ele>639.99884</ele>
        <time>2013-02-19T14:26:24Z</time>
      </trkpt>
      <trkpt lat="43.60918" lon="6.57294">
        <ele>640.1982</ele>
        <time>2013-02-19T14:26:36Z</time>
      </trkpt>
      <trkpt lat="43.60917" lon="6.57308">
        <ele>640.2104</ele>
        <time>2013-02-19T14:26:48Z</time>
      </trkpt>
      <trkpt lat="43.60914" lon="6.57323">
        <ele>640.16754</ele>
        <time>2013-02-19T14:27:00Z</time>
      </trkpt>
      <trkpt lat="43.60912" lon="6.57337">
        <ele>640.36664</ele>
        <time>2013-02-19T14:27:12Z</time>
      </trkpt>
      <trkpt lat="43.60911" lon="6.57351">
        <ele>641.0047</ele>
        <time>2013-02-19T14:27:24Z</time>
      </trkpt>
      <trkpt lat="43.60907" lon="6.57365">
        <ele>641.43243</ele>
        <time>2013-02-19T14:27:36Z</time>
      </trkpt>
      <trkpt lat="43.60906" lon="6.5738">
        <ele>641.8368</ele>
        <time>2013-02-19T14:27:48Z</time>
      </trkpt>
      <trkpt lat="43.60903" lon="6.57393">
        <ele>641.9855</ele>
        <time>2013-02-19T14:28:00Z</time>
      </trkpt>
      <trkpt lat="43.60899" lon="6.57405">
        <ele>641.973</ele>
        <time>2013-02-19T14:28:24Z</time>
      </trkpt>
      <trkpt lat="43.60902" lon="6.5742">
        <ele>642.18854</ele>
        <time>2013-02-19T14:28:36Z</time>
      </trkpt>
      <trkpt lat="43.60906" lon="6.57433">
        <ele>642.8086</ele>
        <time>2013-02-19T14:28:51Z</time>
      </trkpt>
      <trkpt lat="43.60907" lon="6.57448">
        <ele>643.3532</ele>
        <time>2013-02-19T14:29:03Z</time>
      </trkpt>
      <trkpt lat="43.60908" lon="6.57463">
        <ele>643.7581</ele>
        <time>2013-02-19T14:29:15Z</time>
      </trkpt>
      <trkpt lat="43.6091" lon="6.57478">
        <ele>644.20404</ele>
        <time>2013-02-19T14:29:30Z</time>
      </trkpt>
      <trkpt lat="43.6091" lon="6.57491">
        <ele>644.43146</ele>
        <time>2013-02-19T14:29:45Z</time>
      </trkpt>
      <trkpt lat="43.60906" lon="6.57503">
        <ele>644.64984</ele>
        <time>2013-02-19T14:29:57Z</time>
      </trkpt>
      <trkpt lat="43.60902" lon="6.57515">
        <ele>644.92834</ele>
        <time>2013-02-19T14:30:09Z</time>
      </trkpt>
      <trkpt lat="43.60894" lon="6.57528">
        <ele>645.02014</ele>
        <time>2013-02-19T14:30:21Z</time>
      </trkpt>
      <trkpt lat="43.60891" lon="6.5754">
        <ele>645.1598</ele>
        <time>2013-02-19T14:30:30Z</time>
      </trkpt>
      <trkpt lat="43.60891" lon="6.57553">
        <ele>645.9067</ele>
        <time>2013-02-19T14:31:09Z</time>
      </trkpt>
      <trkpt lat="43.60887" lon="6.57566">
        <ele>646.5209</ele>
        <time>2013-02-19T14:31:18Z</time>
      </trkpt>
      <trkpt lat="43.60887" lon="6.5758">
        <ele>646.92755</ele>
        <time>2013-02-19T14:31:30Z</time>
      </trkpt>
      <trkpt lat="43.60886" lon="6.57594">
        <ele>647.5426</ele>
        <time>2013-02-19T14:31:42Z</time>
      </trkpt>
      <trkpt lat="43.60883" lon="6.57609">
        <ele>648.0621</ele>
        <time>2013-02-19T14:31:51Z</time>
      </trkpt>
      <trkpt lat="43.60883" lon="6.57622">
        <ele>648.7567</ele>
        <time>2013-02-19T14:32:03Z</time>
      </trkpt>
      <trkpt lat="43.60883" lon="6.57635">
        <ele>649.0595</ele>
        <time>2013-02-19T14:32:12Z</time>
      </trkpt>
      <trkpt lat="43.60882" lon="6.57649">
        <ele>649.50684</ele>
        <time>2013-02-19T14:32:27Z</time>
      </trkpt>
      <trkpt lat="43.60884" lon="6.57663">
        <ele>649.9379</ele>
        <time>2013-02-19T14:32:39Z</time>
      </trkpt>
      <trkpt lat="43.60884" lon="6.57676">
        <ele>650.1883</ele>
        <time>2013-02-19T14:32:54Z</time>
      </trkpt>
      <trkpt lat="43.60879" lon="6.57688">
        <ele>649.57526</ele>
        <time>2013-02-19T14:33:09Z</time>
      </trkpt>
      <trkpt lat="43.60871" lon="6.57698">
        <ele>649.1716</ele>
        <time>2013-02-19T14:33:24Z</time>
      </trkpt>
      <trkpt lat="43.60863" lon="6.57708">
        <ele>649.1794</ele>
        <time>2013-02-19T14:33:39Z</time>
      </trkpt>
      <trkpt lat="43.60857" lon="6.57721">
        <ele>648.6897</ele>
        <time>2013-02-19T14:33:54Z</time>
      </trkpt>
      <trkpt lat="43.60849" lon="6.5773">
        <ele>648.60565</ele>
        <time>2013-02-19T14:34:03Z</time>
      </trkpt>
      <trkpt lat="43.60839" lon="6.57742">
        <ele>648.92865</ele>
        <time>2013-02-19T14:34:15Z</time>
      </trkpt>
      <trkpt lat="43.60832" lon="6.57753">
        <ele>649.9576</ele>
        <time>2013-02-19T14:34:30Z</time>
      </trkpt>
      <trkpt lat="43.60829" lon="6.57766">
        <ele>650.60236</ele>
        <time>2013-02-19T14:34:42Z</time>
      </trkpt>
      <trkpt lat="43.60826" lon="6.57778">
        <ele>651.32</ele>
        <time>2013-02-19T14:34:54Z</time>
      </trkpt>
      <trkpt lat="43.60824" lon="6.57791">
        <ele>651.9633</ele>
        <time>2013-02-19T14:35:06Z</time>
      </trkpt>
      <trkpt lat="43.6082" lon="6.57806">
        <ele>652.3105</ele>
        <time>2013-02-19T14:35:18Z</time>
      </trkpt>
      <trkpt lat="43.60818" lon="6.57821">
        <ele>652.4552</ele>
        <time>2013-02-19T14:35:30Z</time>
      </trkpt>
      <trkpt lat="43.60815" lon="6.57836">
        <ele>652.77704</ele>
        <time>2013-02-19T14:35:42Z</time>
      </trkpt>
      <trkpt lat="43.60813" lon="6.57852">
        <ele>653.3713</ele>
        <time>2013-02-19T14:35:54Z</time>
      </trkpt>
      <trkpt lat="43.60813" lon="6.57865">
        <ele>654.2453</ele>
        <time>2013-02-19T14:36:06Z</time>
      </trkpt>
      <trkpt lat="43.60812" lon="6.57878">
        <ele>654.77563</ele>
        <time>2013-02-19T14:36:16Z</time>
      </trkpt>
      <trkpt lat="43.60811" lon="6.57891">
        <ele>654.9707</ele>
        <time>2013-02-19T14:36:26Z</time>
      </trkpt>
      <trkpt lat="43.60814" lon="6.57903">
        <ele>655.49945</ele>
        <time>2013-02-19T14:36:37Z</time>
      </trkpt>
      <trkpt lat="43.60817" lon="6.57914">
        <ele>656.52515</ele>
        <time>2013-02-19T14:36:49Z</time>
      </trkpt>
      <trkpt lat="43.6082" lon="6.57927">
        <ele>657.23444</ele>
        <time>2013-02-19T14:37:01Z</time>
      </trkpt>
      <trkpt lat="43.60825" lon="6.57938">
        <ele>658.2806</ele>
        <time>2013-02-19T14:37:13Z</time>
      </trkpt>
      <trkpt lat="43.6083" lon="6.57949">
        <ele>659.66846</ele>
        <time>2013-02-19T14:37:26Z</time>
      </trkpt>
      <trkpt lat="43.60837" lon="6.57957">
        <ele>660.49347</ele>
        <time>2013-02-19T14:37:50Z</time>
      </trkpt>
      <trkpt lat="43.60838" lon="6.57969">
        <ele>660.6175</ele>
        <time>2013-02-19T14:37:59Z</time>
      </trkpt>
      <trkpt lat="43.60842" lon="6.57981">
        <ele>660.8626</ele>
        <time>2013-02-19T14:38:09Z</time>
      </trkpt>
      <trkpt lat="43.60849" lon="6.57994">
        <ele>661.5672</ele>
        <time>2013-02-19T14:38:21Z</time>
      </trkpt>
      <trkpt lat="43.60854" lon="6.58004">
        <ele>662.572</ele>
        <time>2013-02-19T14:38:33Z</time>
      </trkpt>
      <trkpt lat="43.60861" lon="6.58015">
        <ele>663.7209</ele>
        <time>2013-02-19T14:38:45Z</time>
      </trkpt>
      <trkpt lat="43.60868" lon="6.58025">
        <ele>664.1677</ele>
        <time>2013-02-19T14:38:57Z</time>
      </trkpt>
      <trkpt lat="43.60872" lon="6.58039">
        <ele>664.3813</ele>
        <time>2013-02-19T14:39:09Z</time>
      </trkpt>
      <trkpt lat="43.60871" lon="6.58053">
        <ele>664.118</ele>
        <time>2013-02-19T14:39:21Z</time>
      </trkpt>
      <trkpt lat="43.60871" lon="6.58066">
        <ele>663.847</ele>
        <time>2013-02-19T14:39:33Z</time>
      </trkpt>
      <trkpt lat="43.60872" lon="6.5808">
        <ele>663.8221</ele>
        <time>2013-02-19T14:39:48Z</time>
      </trkpt>
      <trkpt lat="43.60873" lon="6.58093">
        <ele>664.0623</ele>
        <time>2013-02-19T14:40:06Z</time>
      </trkpt>
      <trkpt lat="43.60872" lon="6.58106">
        <ele>663.96783</ele>
        <time>2013-02-19T14:40:18Z</time>
      </trkpt>
      <trkpt lat="43.6087" lon="6.58118">
        <ele>663.862</ele>
        <time>2013-02-19T14:40:30Z</time>
      </trkpt>
      <trkpt lat="43.60869" lon="6.58132">
        <ele>664.2705</ele>
        <time>2013-02-19T14:40:45Z</time>
      </trkpt>
      <trkpt lat="43.60867" lon="6.58147">
        <ele>664.97253</ele>
        <time>2013-02-19T14:41:00Z</time>
      </trkpt>
      <trkpt lat="43.60865" lon="6.58159">
        <ele>665.6146</ele>
        <time>2013-02-19T14:41:12Z</time>
      </trkpt>
      <trkpt lat="43.60865" lon="6.58171">
        <ele>665.86926</ele>
        <time>2013-02-19T14:41:24Z</time>
      </trkpt>
      <trkpt lat="43.60861" lon="6.58185">
        <ele>665.7915</ele>
        <time>2013-02-19T14:41:36Z</time>
      </trkpt>
      <trkpt lat="43.60855" lon="6.58196">
        <ele>665.7034</ele>
        <time>2013-02-19T14:41:49Z</time>
      </trkpt>
      <trkpt lat="43.60848" lon="6.58208">
        <ele>665.1825</ele>
        <time>2013-02-19T14:42:04Z</time>
      </trkpt>
      <trkpt lat="43.60839" lon="6.58217">
        <ele>664.74054</ele>
        <time>2013-02-19T14:42:13Z</time>
      </trkpt>
      <trkpt lat="43.60833" lon="6.58229">
        <ele>665.20374</ele>
        <time>2013-02-19T14:42:28Z</time>
      </trkpt>
      <trkpt lat="43.60825" lon="6.58243">
        <ele>664.9285</ele>
        <time>2013-02-19T14:42:49Z</time>
      </trkpt>
      <trkpt lat="43.60818" lon="6.5825">
        <ele>664.5631</ele>
        <time>2013-02-19T14:42:58Z</time>
      </trkpt>
      <trkpt lat="43.60808" lon="6.58259">
        <ele>664.1914</ele>
        <time>2013-02-19T14:43:10Z</time>
      </trkpt>
      <trkpt lat="43.60805" lon="6.58272">
        <ele>663.9586</ele>
        <time>2013-02-19T14:43:19Z</time>
      </trkpt>
      <trkpt lat="43.60796" lon="6.58274">
        <ele>661.2702</ele>
        <time>2013-02-19T14:44:55Z</time>
      </trkpt>
      <trkpt lat="43.60787" lon="6.5828">
        <ele>660.6948</ele>
        <time>2013-02-19T14:45:13Z</time>
      </trkpt>
      <trkpt lat="43.60777" lon="6.58281">
        <ele>655.8312</ele>
        <time>2013-02-19T14:48:46Z</time>
      </trkpt>
      <trkpt lat="43.60787" lon="6.58279">
        <ele>656.22766</ele>
        <time>2013-02-19T14:50:10Z</time>
      </trkpt>
      <trkpt lat="43.60793" lon="6.58288">
        <ele>657.4351</ele>
        <time>2013-02-19T14:50:49Z</time>
      </trkpt>
      <trkpt lat="43.60787" lon="6.58279">
        <ele>657.97394</ele>
        <time>2013-02-19T14:51:34Z</time>
      </trkpt>
      <trkpt lat="43.60777" lon="6.58278">
        <ele>657.4562</ele>
        <time>2013-02-19T14:51:43Z</time>
      </trkpt>
      <trkpt lat="43.60764" lon="6.58277">
        <ele>656.9807</ele>
        <time>2013-02-19T14:51:52Z</time>
      </trkpt>
      <trkpt lat="43.60755" lon="6.58276">
        <ele>656.7022</ele>
        <time>2013-02-19T14:52:01Z</time>
      </trkpt>
      <trkpt lat="43.60743" lon="6.58272">
        <ele>655.998</ele>
        <time>2013-02-19T14:52:13Z</time>
      </trkpt>
      <trkpt lat="43.60734" lon="6.5827">
        <ele>655.18414</ele>
        <time>2013-02-19T14:52:22Z</time>
      </trkpt>
      <trkpt lat="43.60724" lon="6.5827">
        <ele>654.2976</ele>
        <time>2013-02-19T14:52:31Z</time>
      </trkpt>
      <trkpt lat="43.60715" lon="6.58263">
        <ele>653.1927</ele>
        <time>2013-02-19T14:52:40Z</time>
      </trkpt>
      <trkpt lat="43.60708" lon="6.58252">
        <ele>651.3191</ele>
        <time>2013-02-19T14:53:01Z</time>
      </trkpt>
      <trkpt lat="43.60699" lon="6.58243">
        <ele>650.23724</ele>
        <time>2013-02-19T14:53:13Z</time>
      </trkpt>
      <trkpt lat="43.60692" lon="6.58231">
        <ele>649.6129</ele>
        <time>2013-02-19T14:53:22Z</time>
      </trkpt>
      <trkpt lat="43.60686" lon="6.58217">
        <ele>649.0482</ele>
        <time>2013-02-19T14:53:31Z</time>
      </trkpt>
      <trkpt lat="43.60682" lon="6.58204">
        <ele>648.19574</ele>
        <time>2013-02-19T14:53:40Z</time>
      </trkpt>
      <trkpt lat="43.60676" lon="6.58191">
        <ele>646.7753</ele>
        <time>2013-02-19T14:53:49Z</time>
      </trkpt>
      <trkpt lat="43.60649" lon="6.58077">
        <ele>632.87506</ele>
        <time>2013-02-19T14:54:53Z</time>
      </trkpt>
      <trkpt lat="43.60647" lon="6.58061">
        <ele>632.17413</ele>
        <time>2013-02-19T14:55:02Z</time>
      </trkpt>
      <trkpt lat="43.60648" lon="6.58046">
        <ele>630.9562</ele>
        <time>2013-02-19T14:55:11Z</time>
      </trkpt>
      <trkpt lat="43.6065" lon="6.58032">
        <ele>629.58704</ele>
        <time>2013-02-19T14:55:20Z</time>
      </trkpt>
      <trkpt lat="43.60652" lon="6.5802">
        <ele>628.26697</ele>
        <time>2013-02-19T14:55:29Z</time>
      </trkpt>
      <trkpt lat="43.60651" lon="6.58004">
        <ele>626.7367</ele>
        <time>2013-02-19T14:55:41Z</time>
      </trkpt>
      <trkpt lat="43.60649" lon="6.57991">
        <ele>625.74524</ele>
        <time>2013-02-19T14:55:50Z</time>
      </trkpt>
      <trkpt lat="43.6065" lon="6.57975">
        <ele>624.2464</ele>
        <time>2013-02-19T14:56:05Z</time>
      </trkpt>
      <trkpt lat="43.60649" lon="6.57961">
        <ele>622.5253</ele>
        <time>2013-02-19T14:56:17Z</time>
      </trkpt>
      <trkpt lat="43.60648" lon="6.57948">
        <ele>621.7597</ele>
        <time>2013-02-19T14:56:23Z</time>
      </trkpt>
      <trkpt lat="43.60645" lon="6.57936">
        <ele>620.36975</ele>
        <time>2013-02-19T14:56:38Z</time>
      </trkpt>
      <trkpt lat="43.60643" lon="6.57924">
        <ele>619.15796</ele>
        <time>2013-02-19T14:56:50Z</time>
      </trkpt>
      <trkpt lat="43.60639" lon="6.57911">
        <ele>617.95996</ele>
        <time>2013-02-19T14:56:59Z</time>
      </trkpt>
      <trkpt lat="43.60636" lon="6.57897">
        <ele>615.9597</ele>
        <time>2013-02-19T14:57:14Z</time>
      </trkpt>
      <trkpt lat="43.60632" lon="6.57884">
        <ele>613.42303</ele>
        <time>2013-02-19T14:57:32Z</time>
      </trkpt>
      <trkpt lat="43.60626" lon="6.57871">
        <ele>611.41144</ele>
        <time>2013-02-19T14:57:44Z</time>
      </trkpt>
      <trkpt lat="43.60623" lon="6.57857">
        <ele>609.1402</ele>
        <time>2013-02-19T14:57:56Z</time>
      </trkpt>
      <trkpt lat="43.60619" lon="6.57843">
        <ele>606.24506</ele>
        <time>2013-02-19T14:58:11Z</time>
      </trkpt>
      <trkpt lat="43.60614" lon="6.57832">
        <ele>604.2339</ele>
        <time>2013-02-19T14:58:23Z</time>
      </trkpt>
      <trkpt lat="43.60609" lon="6.57821">
        <ele>601.3217</ele>
        <time>2013-02-19T14:58:44Z</time>
      </trkpt>
      <trkpt lat="43.60606" lon="6.57806">
        <ele>599.2848</ele>
        <time>2013-02-19T14:58:56Z</time>
      </trkpt>
      <trkpt lat="43.60603" lon="6.57792">
        <ele>597.1297</ele>
        <time>2013-02-19T14:59:11Z</time>
      </trkpt>
      <trkpt lat="43.60599" lon="6.57778">
        <ele>595.88257</ele>
        <time>2013-02-19T14:59:23Z</time>
      </trkpt>
      <trkpt lat="43.60595" lon="6.57764">
        <ele>594.8108</ele>
        <time>2013-02-19T14:59:35Z</time>
      </trkpt>
      <trkpt lat="43.60592" lon="6.57749">
        <ele>592.6451</ele>
        <time>2013-02-19T14:59:56Z</time>
      </trkpt>
      <trkpt lat="43.6059" lon="6.57734">
        <ele>590.91016</ele>
        <time>2013-02-19T15:00:08Z</time>
      </trkpt>
      <trkpt lat="43.60588" lon="6.57721">
        <ele>588.80457</ele>
        <time>2013-02-19T15:00:20Z</time>
      </trkpt>
      <trkpt lat="43.60585" lon="6.57708">
        <ele>586.7674</ele>
        <time>2013-02-19T15:00:35Z</time>
      </trkpt>
      <trkpt lat="43.60583" lon="6.57696">
        <ele>585.8394</ele>
        <time>2013-02-19T15:00:44Z</time>
      </trkpt>
      <trkpt lat="43.60577" lon="6.57684">
        <ele>584.24115</ele>
        <time>2013-02-19T15:00:56Z</time>
      </trkpt>
      <trkpt lat="43.60571" lon="6.57671">
        <ele>582.7947</ele>
        <time>2013-02-19T15:01:11Z</time>
      </trkpt>
      <trkpt lat="43.60566" lon="6.57657">
        <ele>581.37494</ele>
        <time>2013-02-19T15:01:26Z</time>
      </trkpt>
      <trkpt lat="43.60562" lon="6.57645">
        <ele>580.13416</ele>
        <time>2013-02-19T15:01:38Z</time>
      </trkpt>
      <trkpt lat="43.60558" lon="6.5763">
        <ele>578.6759</ele>
        <time>2013-02-19T15:01:50Z</time>
      </trkpt>
      <trkpt lat="43.60554" lon="6.57617">
        <ele>577.45905</ele>
        <time>2013-02-19T15:01:59Z</time>
      </trkpt>
      <trkpt lat="43.60552" lon="6.57602">
        <ele>576.4043</ele>
        <time>2013-02-19T15:02:08Z</time>
      </trkpt>
      <trkpt lat="43.60547" lon="6.57588">
        <ele>575.0435</ele>
        <time>2013-02-19T15:02:20Z</time>
      </trkpt>
      <trkpt lat="43.60538" lon="6.57596">
        <ele>571.6714</ele>
        <time>2013-02-19T15:03:02Z</time>
      </trkpt>
      <trkpt lat="43.60535" lon="6.57611">
        <ele>571.0382</ele>
        <time>2013-02-19T15:03:14Z</time>
      </trkpt>
      <trkpt lat="43.60536" lon="6.57626">
        <ele>570.5889</ele>
        <time>2013-02-19T15:03:26Z</time>
      </trkpt>
      <trkpt lat="43.60536" lon="6.57639">
        <ele>570.22406</ele>
        <time>2013-02-19T15:03:35Z</time>
      </trkpt>
      <trkpt lat="43.60539" lon="6.57651">
        <ele>563.7892</ele>
        <time>2013-02-19T15:05:05Z</time>
      </trkpt>
      <trkpt lat="43.60542" lon="6.57638">
        <ele>560.93634</ele>
        <time>2013-02-19T15:05:53Z</time>
      </trkpt>
      <trkpt lat="43.6055" lon="6.57633">
        <ele>560.43567</ele>
        <time>2013-02-19T15:06:02Z</time>
      </trkpt>
      <trkpt lat="43.60543" lon="6.57642">
        <ele>557.59863</ele>
        <time>2013-02-19T15:06:56Z</time>
      </trkpt>
      <trkpt lat="43.60535" lon="6.57631">
        <ele>557.41174</ele>
        <time>2013-02-19T15:07:17Z</time>
      </trkpt>
      <trkpt lat="43.60529" lon="6.57622">
        <ele>557.4519</ele>
        <time>2013-02-19T15:07:29Z</time>
      </trkpt>
      <trkpt lat="43.60521" lon="6.57614">
        <ele>558.0305</ele>
        <time>2013-02-19T15:07:53Z</time>
      </trkpt>
      <trkpt lat="43.60515" lon="6.57606">
        <ele>558.02856</ele>
        <time>2013-02-19T15:08:05Z</time>
      </trkpt>
      <trkpt lat="43.60506" lon="6.57595">
        <ele>557.7642</ele>
        <time>2013-02-19T15:08:17Z</time>
      </trkpt>
      <trkpt lat="43.60502" lon="6.57581">
        <ele>557.0396</ele>
        <time>2013-02-19T15:08:31Z</time>
      </trkpt>
      <trkpt lat="43.60498" lon="6.57569">
        <ele>556.45886</ele>
        <time>2013-02-19T15:08:40Z</time>
      </trkpt>
      <trkpt lat="43.60493" lon="6.57558">
        <ele>554.85046</ele>
        <time>2013-02-19T15:09:04Z</time>
      </trkpt>
      <trkpt lat="43.60492" lon="6.57545">
        <ele>554.4802</ele>
        <time>2013-02-19T15:09:13Z</time>
      </trkpt>
      <trkpt lat="43.60501" lon="6.57546">
        <ele>554.1828</ele>
        <time>2013-02-19T15:09:37Z</time>
      </trkpt>
      <trkpt lat="43.60499" lon="6.57535">
        <ele>552.2581</ele>
        <time>2013-02-19T15:10:04Z</time>
      </trkpt>
      <trkpt lat="43.60494" lon="6.57521">
        <ele>551.08105</ele>
        <time>2013-02-19T15:10:13Z</time>
      </trkpt>
      <trkpt lat="43.60491" lon="6.57505">
        <ele>550.3584</ele>
        <time>2013-02-19T15:10:31Z</time>
      </trkpt>
      <trkpt lat="43.60486" lon="6.57493">
        <ele>550.9574</ele>
        <time>2013-02-19T15:10:43Z</time>
      </trkpt>
      <trkpt lat="43.60483" lon="6.5748">
        <ele>550.45013</ele>
        <time>2013-02-19T15:10:55Z</time>
      </trkpt>
      <trkpt lat="43.60481" lon="6.57466">
        <ele>549.595</ele>
        <time>2013-02-19T15:11:07Z</time>
      </trkpt>
      <trkpt lat="43.60478" lon="6.57451">
        <ele>547.6477</ele>
        <time>2013-02-19T15:11:19Z</time>
      </trkpt>
      <trkpt lat="43.60473" lon="6.57436">
        <ele>545.0228</ele>
        <time>2013-02-19T15:11:31Z</time>
      </trkpt>
      <trkpt lat="43.60468" lon="6.57421">
        <ele>543.17084</ele>
        <time>2013-02-19T15:11:40Z</time>
      </trkpt>
      <trkpt lat="43.60466" lon="6.57404">
        <ele>541.0241</ele>
        <time>2013-02-19T15:11:52Z</time>
      </trkpt>
      <trkpt lat="43.60463" lon="6.5739">
        <ele>539.7362</ele>
        <time>2013-02-19T15:12:01Z</time>
      </trkpt>
      <trkpt lat="43.6046" lon="6.57377">
        <ele>538.7462</ele>
        <time>2013-02-19T15:12:10Z</time>
      </trkpt>
      <trkpt lat="43.60459" lon="6.57364">
        <ele>537.37805</ele>
        <time>2013-02-19T15:12:19Z</time>
      </trkpt>
      <trkpt lat="43.60456" lon="6.57348">
        <ele>535.72205</ele>
        <time>2013-02-19T15:12:28Z</time>
      </trkpt>
      <trkpt lat="43.60453" lon="6.57334">
        <ele>534.38635</ele>
        <time>2013-02-19T15:12:36Z</time>
      </trkpt>
      <trkpt lat="43.6045" lon="6.57322">
        <ele>533.1145</ele>
        <time>2013-02-19T15:12:45Z</time>
      </trkpt>
      <trkpt lat="43.60445" lon="6.5731">
        <ele>531.7236</ele>
        <time>2013-02-19T15:12:54Z</time>
      </trkpt>
      <trkpt lat="43.6044" lon="6.57297">
        <ele>529.86206</ele>
        <time>2013-02-19T15:13:06Z</time>
      </trkpt>
      <trkpt lat="43.60436" lon="6.57284">
        <ele>528.5382</ele>
        <time>2013-02-19T15:13:15Z</time>
      </trkpt>
      <trkpt lat="43.60433" lon="6.57269">
        <ele>526.61194</ele>
        <time>2013-02-19T15:13:27Z</time>
      </trkpt>
      <trkpt lat="43.60432" lon="6.57252">
        <ele>525.24414</ele>
        <time>2013-02-19T15:13:36Z</time>
      </trkpt>
      <trkpt lat="43.60429" lon="6.57238">
        <ele>523.39795</ele>
        <time>2013-02-19T15:13:48Z</time>
      </trkpt>
      <trkpt lat="43.60428" lon="6.57225">
        <ele>522.16956</ele>
        <time>2013-02-19T15:13:57Z</time>
      </trkpt>
      <trkpt lat="43.60427" lon="6.5721">
        <ele>521.0014</ele>
        <time>2013-02-19T15:14:06Z</time>
      </trkpt>
      <trkpt lat="43.60426" lon="6.57193">
        <ele>520.1966</ele>
        <time>2013-02-19T15:14:15Z</time>
      </trkpt>
      <trkpt lat="43.60427" lon="6.57176">
        <ele>519.52856</ele>
        <time>2013-02-19T15:14:27Z</time>
      </trkpt>
      <trkpt lat="43.6043" lon="6.57162">
        <ele>519.03235</ele>
        <time>2013-02-19T15:14:39Z</time>
      </trkpt>
      <trkpt lat="43.60433" lon="6.57149">
        <ele>518.18176</ele>
        <time>2013-02-19T15:14:48Z</time>
      </trkpt>
      <trkpt lat="43.60434" lon="6.57136">
        <ele>516.59875</ele>
        <time>2013-02-19T15:15:03Z</time>
      </trkpt>
      <trkpt lat="43.60435" lon="6.57119">
        <ele>515.01117</ele>
        <time>2013-02-19T15:15:12Z</time>
      </trkpt>
      <trkpt lat="43.60434" lon="6.57105">
        <ele>513.68396</ele>
        <time>2013-02-19T15:15:21Z</time>
      </trkpt>
      <trkpt lat="43.60432" lon="6.57088">
        <ele>512.33124</ele>
        <time>2013-02-19T15:15:33Z</time>
      </trkpt>
      <trkpt lat="43.60434" lon="6.57073">
        <ele>510.14926</ele>
        <time>2013-02-19T15:15:51Z</time>
      </trkpt>
      <trkpt lat="43.6043" lon="6.57062">
        <ele>507.21884</ele>
        <time>2013-02-19T15:16:09Z</time>
      </trkpt>
      <trkpt lat="43.60432" lon="6.57048">
        <ele>506.7005</ele>
        <time>2013-02-19T15:16:21Z</time>
      </trkpt>
      <trkpt lat="43.60439" lon="6.57041">
        <ele>505.1134</ele>
        <time>2013-02-19T15:17:00Z</time>
      </trkpt>
      <trkpt lat="43.60441" lon="6.57028">
        <ele>504.69086</ele>
        <time>2013-02-19T15:17:06Z</time>
      </trkpt>
      <trkpt lat="43.60444" lon="6.57015">
        <ele>503.9778</ele>
        <time>2013-02-19T15:17:12Z</time>
      </trkpt>
      <trkpt lat="43.60446" lon="6.56999">
        <ele>503.0491</ele>
        <time>2013-02-19T15:17:21Z</time>
      </trkpt>
      <trkpt lat="43.60448" lon="6.56986">
        <ele>502.34976</ele>
        <time>2013-02-19T15:17:30Z</time>
      </trkpt>
      <trkpt lat="43.60451" lon="6.56974">
        <ele>501.7567</ele>
        <time>2013-02-19T15:17:42Z</time>
      </trkpt>
      <trkpt lat="43.60456" lon="6.56964">
        <ele>501.39313</ele>
        <time>2013-02-19T15:17:51Z</time>
      </trkpt>
      <trkpt lat="43.60466" lon="6.56954">
        <ele>500.5118</ele>
        <time>2013-02-19T15:18:09Z</time>
      </trkpt>
      <trkpt lat="43.60474" lon="6.56948">
        <ele>499.49002</ele>
        <time>2013-02-19T15:18:18Z</time>
      </trkpt>
      <trkpt lat="43.60482" lon="6.56941">
        <ele>498.41583</ele>
        <time>2013-02-19T15:18:27Z</time>
      </trkpt>
      <trkpt lat="43.6049" lon="6.5693">
        <ele>497.61386</ele>
        <time>2013-02-19T15:18:39Z</time>
      </trkpt>
      <trkpt lat="43.60497" lon="6.56918">
        <ele>497.46222</ele>
        <time>2013-02-19T15:18:51Z</time>
      </trkpt>
      <trkpt lat="43.60505" lon="6.56909">
        <ele>497.20056</ele>
        <time>2013-02-19T15:19:00Z</time>
      </trkpt>
      <trkpt lat="43.6051" lon="6.56897">
        <ele>496.67273</ele>
        <time>2013-02-19T15:19:09Z</time>
      </trkpt>
      <trkpt lat="43.60499" lon="6.56899">
        <ele>496.33377</ele>
        <time>2013-02-19T15:19:15Z</time>
      </trkpt>
      <trkpt lat="43.60491" lon="6.5691">
        <ele>495.9026</ele>
        <time>2013-02-19T15:19:24Z</time>
      </trkpt>
      <trkpt lat="43.60482" lon="6.56917">
        <ele>495.3792</ele>
        <time>2013-02-19T15:19:36Z</time>
      </trkpt>
      <trkpt lat="43.60471" lon="6.56924">
        <ele>495.27136</ele>
        <time>2013-02-19T15:19:48Z</time>
      </trkpt>
      <trkpt lat="43.60462" lon="6.56928">
        <ele>495.07187</ele>
        <time>2013-02-19T15:19:57Z</time>
      </trkpt>
      <trkpt lat="43.6045" lon="6.56929">
        <ele>494.50467</ele>
        <time>2013-02-19T15:20:12Z</time>
      </trkpt>
      <trkpt lat="43.60441" lon="6.56937">
        <ele>493.76593</ele>
        <time>2013-02-19T15:20:21Z</time>
      </trkpt>
      <trkpt lat="43.60431" lon="6.56946">
        <ele>492.8661</ele>
        <time>2013-02-19T15:20:30Z</time>
      </trkpt>
      <trkpt lat="43.6042" lon="6.5695">
        <ele>491.7946</ele>
        <time>2013-02-19T15:20:39Z</time>
      </trkpt>
      <trkpt lat="43.60412" lon="6.56957">
        <ele>490.88138</ele>
        <time>2013-02-19T15:20:48Z</time>
      </trkpt>
      <trkpt lat="43.60401" lon="6.56968">
        <ele>489.28732</ele>
        <time>2013-02-19T15:21:03Z</time>
      </trkpt>
      <trkpt lat="43.60393" lon="6.56984">
        <ele>488.17712</ele>
        <time>2013-02-19T15:21:17Z</time>
      </trkpt>
      <trkpt lat="43.60385" lon="6.56994">
        <ele>487.4777</ele>
        <time>2013-02-19T15:21:24Z</time>
      </trkpt>
      <trkpt lat="43.60383" lon="6.57008">
        <ele>485.80908</ele>
        <time>2013-02-19T15:21:42Z</time>
      </trkpt>
      <trkpt lat="43.60381" lon="6.57024">
        <ele>485.96283</ele>
        <time>2013-02-19T15:21:51Z</time>
      </trkpt>
      <trkpt lat="43.60374" lon="6.57012">
        <ele>482.4504</ele>
        <time>2013-02-19T15:22:54Z</time>
      </trkpt>
      <trkpt lat="43.60372" lon="6.56996">
        <ele>478.89218</ele>
        <time>2013-02-19T15:23:39Z</time>
      </trkpt>
      <trkpt lat="43.60372" lon="6.56981">
        <ele>477.68423</ele>
        <time>2013-02-19T15:23:51Z</time>
      </trkpt>
      <trkpt lat="43.60371" lon="6.56967">
        <ele>476.69498</ele>
        <time>2013-02-19T15:24:00Z</time>
      </trkpt>
      <trkpt lat="43.60362" lon="6.56954">
        <ele>473.4736</ele>
        <time>2013-02-19T15:24:50Z</time>
      </trkpt>
      <trkpt lat="43.60366" lon="6.56935">
        <ele>472.5641</ele>
        <time>2013-02-19T15:24:56Z</time>
      </trkpt>
      <trkpt lat="43.60368" lon="6.56923">
        <ele>471.94797</ele>
        <time>2013-02-19T15:24:59Z</time>
      </trkpt>
      <trkpt lat="43.60373" lon="6.56911">
        <ele>469.96152</ele>
        <time>2013-02-19T15:25:08Z</time>
      </trkpt>
      <trkpt lat="43.60379" lon="6.56898">
        <ele>467.39212</ele>
        <time>2013-02-19T15:25:20Z</time>
      </trkpt>
      <trkpt lat="43.60382" lon="6.56882">
        <ele>465.43488</ele>
        <time>2013-02-19T15:25:32Z</time>
      </trkpt>
      <trkpt lat="43.60393" lon="6.56869">
        <ele>464.27142</ele>
        <time>2013-02-19T15:25:41Z</time>
      </trkpt>
      <trkpt lat="43.60399" lon="6.56857">
        <ele>463.59497</ele>
        <time>2013-02-19T15:25:47Z</time>
      </trkpt>
      <trkpt lat="43.60405" lon="6.56846">
        <ele>462.87888</ele>
        <time>2013-02-19T15:25:56Z</time>
      </trkpt>
      <trkpt lat="43.60413" lon="6.56835">
        <ele>462.2623</ele>
        <time>2013-02-19T15:26:05Z</time>
      </trkpt>
      <trkpt lat="43.60419" lon="6.56823">
        <ele>461.7043</ele>
        <time>2013-02-19T15:26:14Z</time>
      </trkpt>
      <trkpt lat="43.60426" lon="6.5681">
        <ele>461.3638</ele>
        <time>2013-02-19T15:26:26Z</time>
      </trkpt>
      <trkpt lat="43.60434" lon="6.56801">
        <ele>461.2386</ele>
        <time>2013-02-19T15:26:38Z</time>
      </trkpt>
      <trkpt lat="43.60444" lon="6.56792">
        <ele>461.04187</ele>
        <time>2013-02-19T15:26:59Z</time>
      </trkpt>
      <trkpt lat="43.60452" lon="6.56784">
        <ele>460.93933</ele>
        <time>2013-02-19T15:27:08Z</time>
      </trkpt>
      <trkpt lat="43.60458" lon="6.56776">
        <ele>460.33987</ele>
        <time>2013-02-19T15:27:17Z</time>
      </trkpt>
      <trkpt lat="43.60465" lon="6.56763">
        <ele>459.84857</ele>
        <time>2013-02-19T15:27:26Z</time>
      </trkpt>
      <trkpt lat="43.60471" lon="6.56752">
        <ele>459.45563</ele>
        <time>2013-02-19T15:27:35Z</time>
      </trkpt>
      <trkpt lat="43.60478" lon="6.56743">
        <ele>459.12387</ele>
        <time>2013-02-19T15:27:44Z</time>
      </trkpt>
      <trkpt lat="43.60486" lon="6.56731">
        <ele>458.7766</ele>
        <time>2013-02-19T15:27:53Z</time>
      </trkpt>
      <trkpt lat="43.60494" lon="6.56719">
        <ele>458.31027</ele>
        <time>2013-02-19T15:28:05Z</time>
      </trkpt>
      <trkpt lat="43.605" lon="6.56707">
        <ele>457.6475</ele>
        <time>2013-02-19T15:28:17Z</time>
      </trkpt>
      <trkpt lat="43.60506" lon="6.56695">
        <ele>456.88388</ele>
        <time>2013-02-19T15:28:29Z</time>
      </trkpt>
      <trkpt lat="43.60511" lon="6.56681">
        <ele>456.27954</ele>
        <time>2013-02-19T15:28:38Z</time>
      </trkpt>
      <trkpt lat="43.60516" lon="6.56668">
        <ele>455.74646</ele>
        <time>2013-02-19T15:28:47Z</time>
      </trkpt>
      <trkpt lat="43.60519" lon="6.56653">
        <ele>455.4162</ele>
        <time>2013-02-19T15:28:56Z</time>
      </trkpt>
      <trkpt lat="43.60519" lon="6.56638">
        <ele>455.0014</ele>
        <time>2013-02-19T15:29:05Z</time>
      </trkpt>
      <trkpt lat="43.60512" lon="6.5663">
        <ele>454.5757</ele>
        <time>2013-02-19T15:29:14Z</time>
      </trkpt>
      <trkpt lat="43.60498" lon="6.5663">
        <ele>454.44937</ele>
        <time>2013-02-19T15:29:23Z</time>
      </trkpt>
      <trkpt lat="43.60488" lon="6.56639">
        <ele>453.62155</ele>
        <time>2013-02-19T15:29:35Z</time>
      </trkpt>
      <trkpt lat="43.60481" lon="6.5665">
        <ele>453.1204</ele>
        <time>2013-02-19T15:29:44Z</time>
      </trkpt>
      <trkpt lat="43.60475" lon="6.5666">
        <ele>452.60754</ele>
        <time>2013-02-19T15:29:53Z</time>
      </trkpt>
      <trkpt lat="43.6047" lon="6.5667">
        <ele>453.79898</ele>
        <time>2013-02-19T15:30:35Z</time>
      </trkpt>
      <trkpt lat="43.60461" lon="6.56679">
        <ele>453.35925</ele>
        <time>2013-02-19T15:30:44Z</time>
      </trkpt>
      <trkpt lat="43.60453" lon="6.56685">
        <ele>451.98193</ele>
        <time>2013-02-19T15:31:05Z</time>
      </trkpt>
      <trkpt lat="43.60441" lon="6.56699">
        <ele>450.64728</ele>
        <time>2013-02-19T15:31:17Z</time>
      </trkpt>
      <trkpt lat="43.60431" lon="6.56706">
        <ele>449.70795</ele>
        <time>2013-02-19T15:31:26Z</time>
      </trkpt>
      <trkpt lat="43.60421" lon="6.56714">
        <ele>449.1437</ele>
        <time>2013-02-19T15:31:35Z</time>
      </trkpt>
      <trkpt lat="43.60413" lon="6.56723">
        <ele>448.55115</ele>
        <time>2013-02-19T15:31:47Z</time>
      </trkpt>
      <trkpt lat="43.60403" lon="6.56729">
        <ele>447.85727</ele>
        <time>2013-02-19T15:31:56Z</time>
      </trkpt>
      <trkpt lat="43.60394" lon="6.56728">
        <ele>446.84045</ele>
        <time>2013-02-19T15:32:08Z</time>
      </trkpt>
      <trkpt lat="43.60381" lon="6.56727">
        <ele>445.77914</ele>
        <time>2013-02-19T15:32:20Z</time>
      </trkpt>
      <trkpt lat="43.60371" lon="6.56724">
        <ele>445.1277</ele>
        <time>2013-02-19T15:32:29Z</time>
      </trkpt>
      <trkpt lat="43.60361" lon="6.5672">
        <ele>444.70963</ele>
        <time>2013-02-19T15:32:41Z</time>
      </trkpt>
      <trkpt lat="43.6035" lon="6.56716">
        <ele>444.1749</ele>
        <time>2013-02-19T15:32:53Z</time>
      </trkpt>
      <trkpt lat="43.60341" lon="6.56722">
        <ele>443.80078</ele>
        <time>2013-02-19T15:33:05Z</time>
      </trkpt>
      <trkpt lat="43.60332" lon="6.56732">
        <ele>443.59128</ele>
        <time>2013-02-19T15:33:17Z</time>
      </trkpt>
      <trkpt lat="43.60325" lon="6.5674">
        <ele>443.6156</ele>
        <time>2013-02-19T15:33:26Z</time>
      </trkpt>
      <trkpt lat="43.60315" lon="6.56749">
        <ele>443.96664</ele>
        <time>2013-02-19T15:33:35Z</time>
      </trkpt>
      <trkpt lat="43.60308" lon="6.5676">
        <ele>444.41</ele>
        <time>2013-02-19T15:33:44Z</time>
      </trkpt>
      <trkpt lat="43.60302" lon="6.5677">
        <ele>444.7893</ele>
        <time>2013-02-19T15:33:53Z</time>
      </trkpt>
      <trkpt lat="43.60296" lon="6.56783">
        <ele>444.49844</ele>
        <time>2013-02-19T15:34:05Z</time>
      </trkpt>
      <trkpt lat="43.60289" lon="6.56795">
        <ele>443.7083</ele>
        <time>2013-02-19T15:34:14Z</time>
      </trkpt>
      <trkpt lat="43.60284" lon="6.56807">
        <ele>442.682</ele>
        <time>2013-02-19T15:34:23Z</time>
      </trkpt>
      <trkpt lat="43.60276" lon="6.56819">
        <ele>441.17273</ele>
        <time>2013-02-19T15:34:41Z</time>
      </trkpt>
      <trkpt lat="43.60269" lon="6.56831">
        <ele>440.3983</ele>
        <time>2013-02-19T15:34:53Z</time>
      </trkpt>
      <trkpt lat="43.60265" lon="6.56844">
        <ele>439.44247</ele>
        <time>2013-02-19T15:35:02Z</time>
      </trkpt>
      <trkpt lat="43.6026" lon="6.56858">
        <ele>438.8501</ele>
        <time>2013-02-19T15:35:14Z</time>
      </trkpt>
      <trkpt lat="43.60256" lon="6.5687">
        <ele>438.6702</ele>
        <time>2013-02-19T15:35:23Z</time>
      </trkpt>
      <trkpt lat="43.60253" lon="6.56884">
        <ele>438.18808</ele>
        <time>2013-02-19T15:35:35Z</time>
      </trkpt>
      <trkpt lat="43.60249" lon="6.569">
        <ele>437.44556</ele>
        <time>2013-02-19T15:35:47Z</time>
      </trkpt>
      <trkpt lat="43.60241" lon="6.56908">
        <ele>436.79602</ele>
        <time>2013-02-19T15:35:59Z</time>
      </trkpt>
      <trkpt lat="43.6023" lon="6.5691">
        <ele>436.13046</ele>
        <time>2013-02-19T15:36:11Z</time>
      </trkpt>
      <trkpt lat="43.6022" lon="6.56913">
        <ele>435.53015</ele>
        <time>2013-02-19T15:36:20Z</time>
      </trkpt>
      <trkpt lat="43.60211" lon="6.56916">
        <ele>434.83417</ele>
        <time>2013-02-19T15:36:29Z</time>
      </trkpt>
      <trkpt lat="43.60202" lon="6.56924">
        <ele>433.73987</ele>
        <time>2013-02-19T15:36:41Z</time>
      </trkpt>
      <trkpt lat="43.60192" lon="6.56924">
        <ele>432.50256</ele>
        <time>2013-02-19T15:36:53Z</time>
      </trkpt>
      <trkpt lat="43.60188" lon="6.56907">
        <ele>431.3344</ele>
        <time>2013-02-19T15:37:05Z</time>
      </trkpt>
      <trkpt lat="43.6019" lon="6.56894">
        <ele>430.18134</ele>
        <time>2013-02-19T15:37:17Z</time>
      </trkpt>
      <trkpt lat="43.60189" lon="6.56881">
        <ele>429.44104</ele>
        <time>2013-02-19T15:37:26Z</time>
      </trkpt>
      <trkpt lat="43.60189" lon="6.56865">
        <ele>428.72357</ele>
        <time>2013-02-19T15:37:38Z</time>
      </trkpt>
      <trkpt lat="43.60187" lon="6.56851">
        <ele>428.25552</ele>
        <time>2013-02-19T15:37:47Z</time>
      </trkpt>
      <trkpt lat="43.60188" lon="6.56836">
        <ele>427.22348</ele>
        <time>2013-02-19T15:37:59Z</time>
      </trkpt>
      <trkpt lat="43.60188" lon="6.56822">
        <ele>426.48322</ele>
        <time>2013-02-19T15:38:08Z</time>
      </trkpt>
      <trkpt lat="43.60189" lon="6.56807">
        <ele>425.90485</ele>
        <time>2013-02-19T15:38:20Z</time>
      </trkpt>
      <trkpt lat="43.60192" lon="6.56794">
        <ele>425.52417</ele>
        <time>2013-02-19T15:38:29Z</time>
      </trkpt>
      <trkpt lat="43.60193" lon="6.56776">
        <ele>424.82944</ele>
        <time>2013-02-19T15:38:41Z</time>
      </trkpt>
      <trkpt lat="43.60193" lon="6.56761">
        <ele>424.1312</ele>
        <time>2013-02-19T15:38:50Z</time>
      </trkpt>
      <trkpt lat="43.60192" lon="6.56747">
        <ele>423.3476</ele>
        <time>2013-02-19T15:38:59Z</time>
      </trkpt>
      <trkpt lat="43.60189" lon="6.56734">
        <ele>422.60538</ele>
        <time>2013-02-19T15:39:08Z</time>
      </trkpt>
      <trkpt lat="43.60188" lon="6.56722">
        <ele>421.83954</ele>
        <time>2013-02-19T15:39:17Z</time>
      </trkpt>
      <trkpt lat="43.60188" lon="6.56709">
        <ele>421.07172</ele>
        <time>2013-02-19T15:39:26Z</time>
      </trkpt>
      <trkpt lat="43.60192" lon="6.56695">
        <ele>420.07336</ele>
        <time>2013-02-19T15:39:38Z</time>
      </trkpt>
      <trkpt lat="43.60197" lon="6.56684">
        <ele>419.0946</ele>
        <time>2013-02-19T15:39:47Z</time>
      </trkpt>
      <trkpt lat="43.60203" lon="6.56674">
        <ele>418.09094</ele>
        <time>2013-02-19T15:39:56Z</time>
      </trkpt>
      <trkpt lat="43.60204" lon="6.5666">
        <ele>417.02747</ele>
        <time>2013-02-19T15:40:05Z</time>
      </trkpt>
      <trkpt lat="43.60206" lon="6.56647">
        <ele>416.0602</ele>
        <time>2013-02-19T15:40:17Z</time>
      </trkpt>
      <trkpt lat="43.60208" lon="6.56633">
        <ele>415.08972</ele>
        <time>2013-02-19T15:40:29Z</time>
      </trkpt>
      <trkpt lat="43.60207" lon="6.56619">
        <ele>413.8565</ele>
        <time>2013-02-19T15:41:01Z</time>
      </trkpt>
      <trkpt lat="43.60214" lon="6.5661">
        <ele>413.16385</ele>
        <time>2013-02-19T15:41:10Z</time>
      </trkpt>
      <trkpt lat="43.60219" lon="6.56596">
        <ele>411.7174</ele>
        <time>2013-02-19T15:41:22Z</time>
      </trkpt>
      <trkpt lat="43.60227" lon="6.56607">
        <ele>409.34732</ele>
        <time>2013-02-19T15:42:26Z</time>
      </trkpt>
    </trkseg>
  </trk>
</gpx>